Nearby METAR Reports

 

KCMH - Columbus, Ohio, USA
Distance from station: SW 5mi, 8km
Updated: Sat, 25-May-2019 4:51am EDT
Clear
Clear
 Wind from ESE
Wind: ESE 5 mph , 7 km/h
Temperature: 66°F , 19°C
Dew Point: 63°F , 17°C
Humidity: 88%
Barometer: 30.05 inHg , 1017.6 hPa
Clouds: Clear
Visibility: 10 miles , 16 km
2019/05/25 08:51 KCMH 250851Z 12004KT 10SM CLR 19/17 A3005 RMK AO2 SLP168 T01890172 58006
KOSU - Columbus/St Univ, Ohio, USA
Distance from station: W 14mi, 23km
Updated: Sat, 25-May-2019 4:53am EDT
Clear
Clear
 Wind from SSE
Wind: SSE 5 mph , 7 km/h
Temperature: 66°F , 19°C
Dew Point: 64°F , 18°C
Humidity: 94%
Barometer: 30.05 inHg , 1017.6 hPa
Clouds: Clear
Visibility: 10 miles , 16 km
2019/05/25 08:53 KOSU 250853Z AUTO 15004KT 10SM CLR 19/18 A3005 RMK AO2 SLP167 T01940183 58007
 
KLCK - Rickenbacker Ang, Ohio, USA
Distance from station: SSW 17mi, 27km
Updated: Sat, 25-May-2019 4:55am EDT
Clear
Clear
 Wind from calm
Wind: Calm
Temperature: 63°F , 17°C
Dew Point: 63°F , 17°C
Humidity: 100%
Barometer: 30.05 inHg , 1017.6 hPa
Clouds: Clear
Visibility: 10 miles , 16 km
2019/05/25 08:55 KLCK 250855Z AUTO 00000KT 10SM CLR 17/17 A3005 RMK AO2 T01740173
KVTA - Newark, Ohio, USA
Distance from station: E 19mi, 30km
Updated: Sat, 25-May-2019 5:07am EDT
Mist, Clear
Mist, Clear
 Wind from calm
Wind: Calm
Temperature: 61°F , 16°C
Dew Point: 61°F , 16°C
Humidity: 100%
Barometer: 30.06 inHg , 1017.9 hPa
Summary: Mist
Clouds: Clear
Visibility: 3/4 mile , 1.2 km
2019/05/25 09:07 KVTA 250907Z AUTO 00000KT 3/4SM BR CLR 16/16 A3006 RMK AO2 T01610156
 
KTZR - Columbus/Bolton, Ohio, USA
Distance from station: WSW 20mi, 31km
Updated: Sat, 25-May-2019 5:00am EDT
Mist, Clear
Mist, Clear
 Wind from S
Wind: S 5 mph , 7 km/h
Temperature: 66°F , 19°C
Dew Point: 66°F , 19°C
Humidity: 100%
Barometer: 30.06 inHg , 1017.9 hPa
Summary: Mist
Clouds: Clear
Visibility: 5 miles , 8 km
2019/05/25 09:00 KTZR 250900Z AUTO 19004KT 5SM BR CLR 19/19 A3006 RMK AO2 T01880187
KLHQ - Lancaster, Ohio, USA
Distance from station: SSE 22mi, 36km
Updated: Sat, 25-May-2019 4:53am EDT
Clear
Clear
 Wind from SSE
Wind: SSE 5 mph , 7 km/h
Temperature: 64°F , 18°C
Dew Point: 63°F , 17°C
Humidity: 94%
Barometer: 30.06 inHg , 1017.9 hPa
Clouds: Clear
Visibility: 9 miles , 14 km
2019/05/25 08:53 KLHQ 250853Z AUTO 16004KT 9SM CLR 18/17 A3006 RMK AO2 SLP175 T01780172 56006
 
KDLZ - Delaware, Ohio, USA
Distance from station: NW 23mi, 36km
Updated: Sat, 25-May-2019 4:55am EDT
Clear
Clear
 Wind from SSE
Wind: SSE 6 mph , 9 km/h
Temperature: 66°F , 19°C
Dew Point: 63°F , 17°C
Humidity: 88%
Barometer: 30.05 inHg , 1017.6 hPa
Clouds: Clear
Visibility: 10 miles , 16 km
2019/05/25 08:55 KDLZ 250855Z AUTO 16005KT 10SM CLR 19/17 A3005 RMK AO2
K4I3 - Mt Vernon/Knox, Ohio, USA
Distance from station: NE 25mi, 40km
Updated: Sat, 25-May-2019 4:55am EDT
Clear
Clear
 Wind from S
Wind: S 3 mph , 6 km/h
Temperature: 64°F , 18°C
Dew Point: 63°F , 17°C
Humidity: 94%
Barometer: 30.08 inHg , 1018.6 hPa
Clouds: Clear
Visibility: 10 miles , 16 km
2019/05/25 08:55 K4I3 250855Z AUTO 17003KT 10SM CLR 18/17 A3008 RMK AO2
 
KMRT - Marysville, Ohio, USA
Distance from station: WNW 30mi, 49km
Updated: Sat, 25-May-2019 4:55am EDT
Clear
Clear
 Wind from SSW
Wind: SSW 8 mph , 13 km/h
Temperature: 66°F , 19°C
Dew Point: 64°F , 18°C
Humidity: 94%
Barometer: 30.05 inHg , 1017.6 hPa
Clouds: Clear
Visibility: 10 miles , 16 km
2019/05/25 08:55 KMRT 250855Z AUTO 21007KT 10SM CLR 19/18 A3005 RMK AO2 T01850175
KMNN - Marion, Ohio, USA
Distance from station: NNW 41mi, 67km
Updated: Sat, 25-May-2019 4:53am EDT
Clear
Clear
 Wind from S
Wind: S 10 mph , 17 km/h
Temperature: 66°F , 19°C
Dew Point: 63°F , 17°C
Humidity: 88%
Barometer: 30.04 inHg , 1017.3 hPa
Clouds: Clear
Visibility: 9 miles , 14 km
2019/05/25 08:53 KMNN 250853Z AUTO 17009KT 9SM CLR 19/17 A3004 RMK AO2 SLP168 T01890172 58006
 
KZZV - Zanesville, Ohio, USA
Distance from station: E 49mi, 79km
Updated: Sat, 25-May-2019 4:53am EDT
Clear
Clear
 Wind from calm
Wind: Calm
Temperature: 63°F , 17°C
Dew Point: 59°F , 15°C
Humidity: 88%
Barometer: 30.07 inHg , 1018.3 hPa
Clouds: Clear
Visibility: 10 miles , 16 km
2019/05/25 08:53 KZZV 250853Z AUTO 00000KT 10SM CLR 17/15 A3007 RMK AO2 SLP178 T01720150 56005